CheckWX is a tool to help pilots better visualize weather data.  It is not intended as a substitute for an official pre-flight weather briefing.

04:54:44 UTC

6L4 METAR
Logan County Airport
Logan, West Virginia, USA
Current

20 mins ago

K6L4 260435Z AUTO 12008G15KT 080V190 10SM CLR 19/11 A3012 RMK AO2
Observed
Aug-26 @ 04:35 UTC
Wind
  • 120° at 8 KTS
  • Gusting to 15 KTS
Visibility
10 SM
Flight Rules
VFR
Cloud Levels
  • Clear skies
Temperature
19°C / 66°F
Dewpoint
11°C / 52°F
Humidity
60%
Altimeter
30.12" Hg
Pressure
1020.02 hPa
Previous

40 mins ago

K6L4 260415Z AUTO VRB06G12KT 10SM CLR 19/11 A3012 RMK AO2
Observed
Aug-26 @ 04:15 UTC
Wind
  • Variable at 6 KTS
  • Gusting to 12 KTS
Visibility
10 SM
Flight Rules
VFR
Cloud Levels
  • Clear skies
Temperature
19°C / 66°F
Dewpoint
11°C / 52°F
Humidity
60%
Altimeter
30.12" Hg
Pressure
1020.02 hPa
Previous

60 mins ago

K6L4 260355Z AUTO VRB04G13KT 10SM CLR 19/11 A3012 RMK AO2
Observed
Aug-26 @ 03:55 UTC
Wind
  • Variable at 4 KTS
  • Gusting to 13 KTS
Visibility
10 SM
Flight Rules
VFR
Cloud Levels
  • Clear skies
Temperature
19°C / 66°F
Dewpoint
11°C / 52°F
Humidity
60%
Altimeter
30.12" Hg
Pressure
1020.02 hPa